This is the latest recevied weather packets stored in our database for station/object SQ7KHZ-10. If no packets are shown the sender has not sent any weather packets the latest 10 day(s).
| Time | Temp. | Humidity | Pressure | Rain* | Wind** | Luminosity | Snow |
|---|---|---|---|---|---|---|---|
| 1777455956 | 6.11° C | 50% | 1027.5 hPa | 0 mm | - | - | - |
| 1777454754 | 6.11° C | 49% | 1027.5 hPa | 0 mm | - | - | - |
| 1777453538 | 7.22° C | 49% | 1027.4 hPa | 0 mm | - | - | - |
| 1777452335 | 5.56° C | 51% | 1027.5 hPa | 0 mm | - | - | - |
| 1777451132 | 6.11° C | 51% | 1027.5 hPa | 0 mm | - | - | - |
| 1777449928 | 6.11° C | 51% | 1027.4 hPa | 0 mm | - | - | - |
| 1777448723 | 5.56° C | 50% | 1027.3 hPa | 0 mm | - | - | - |
| 1777447519 | 5.56° C | 51% | 1027.1 hPa | 0 mm | - | - | - |
| 1777446319 | 5° C | 53% | 1027 hPa | 0 mm | - | - | - |
| 1777445118 | 4.44° C | 56% | 1026.9 hPa | 0 mm | - | - | - |
| 1777443916 | 4.44° C | 58% | 1026.8 hPa | 0 mm | - | - | - |
| 1777442712 | 4.44° C | 59% | 1026.6 hPa | 0 mm | - | - | - |
| 1777441494 | 3.89° C | 60% | 1026.4 hPa | 0 mm | - | - | - |
| 1777440287 | 2.78° C | 66% | 1026.2 hPa | 0 mm | - | - | - |
| 1777439080 | 2.22° C | 69% | 1026.1 hPa | 0 mm | - | - | - |
| 1777437871 | 1.67° C | 71% | 1026.1 hPa | 0 mm | - | - | - |
| 1777436667 | 1.11° C | 76% | 1026 hPa | 0 mm | - | - | - |
| 1777435467 | 0.56° C | 78% | 1025.7 hPa | 0 mm | - | - | - |
| 1777434255 | 0° C | 78% | 1025.5 hPa | 0 mm | - | - | - |
| 1777433044 | 0.56° C | 77% | 1025.3 hPa | 0 mm | - | - | - |
| 1777431843 | 1.11° C | 74% | 1025.3 hPa | 0 mm | - | - | - |
| 1777430631 | 1.67° C | 74% | 1025.3 hPa | 0 mm | - | - | - |
| 1777429430 | 1.67° C | 75% | 1025.2 hPa | 0 mm | - | - | - |
| 1777428229 | 2.22° C | 78% | 1025.1 hPa | 0 mm | - | - | - |
| 1777427028 | 2.78° C | 78% | 1025 hPa | 0 mm | - | - | - |
* Rain latest hour (hover to see other rain measurements)
** Current wind speed in m/s (hover to see current wind gust speed)